Time;durP1;ratioP1;P1;durP2;ratioP2;P2;SDS_P1;SDS_P2;PMS_P1;PMS_P2;Temp;Humidity;BMP_temperature;BMP_pressure;BME280_temperature;BME280_humidity;BME280_pressure;Samples;Min_cycle;Max_cycle;Signal;HPM_P1;HPM_P2
2022/05/28 00:01:04;;;;;;;4.70;4.10;;;15.20;82.80;;;;;;5030669;28;20489;-66
2022/05/28 00:03:31;;;;;;;6.93;3.63;;;15.20;82.80;;;;;;5032697;28;20426;-66
2022/05/28 00:05:57;;;;;;;6.10;3.23;;;15.20;83.10;;;;;;5031834;28;20451;-66
2022/05/28 00:08:24;;;;;;;4.80;3.00;;;15.30;83.40;;;;;;5032499;28;20786;-66
2022/05/28 00:10:52;;;;;;;4.20;3.80;;;15.20;83.80;;;;;;5032117;28;20413;-70
2022/05/28 00:13:17;;;;;;;4.00;2.80;;;15.20;83.30;;;;;;5032307;28;20404;-66
2022/05/28 00:15:43;;;;;;;6.17;3.03;;;15.30;83.60;;;;;;5032194;28;20450;-66
2022/05/28 00:18:10;;;;;;;4.43;3.40;;;15.20;83.60;;;;;;5031791;28;20183;-66
2022/05/28 00:20:36;;;;;;;4.43;2.87;;;15.30;84.30;;;;;;5032245;28;20240;-66
2022/05/28 00:23:02;;;;;;;6.63;3.40;;;15.20;84.20;;;;;;5031739;28;20422;-66
2022/05/28 00:25:28;;;;;;;7.30;3.00;;;15.20;84.80;;;;;;5032205;28;20417;-66
2022/05/28 00:27:54;;;;;;;4.70;3.03;;;15.20;84.30;;;;;;5031703;28;20410;-66
2022/05/28 00:30:20;;;;;;;7.77;3.50;;;15.20;84.60;;;;;;5032354;28;20865;-66
2022/05/28 00:32:47;;;;;;;4.80;2.90;;;15.20;85.20;;;;;;5033068;28;20173;-66
2022/05/28 00:35:16;;;;;;;6.60;3.13;;;15.20;84.90;;;;;;5035118;28;20454;-66
2022/05/28 00:37:46;;;;;;;8.53;3.97;;;15.20;85.80;;;;;;5036059;28;20415;-66
2022/05/28 00:40:24;;;;;;;3.83;2.80;;;15.10;84.90;;;;;;5035157;28;20432;-66
2022/05/28 00:42:50;;;;;;;8.63;3.73;;;15.10;85.30;;;;;;5035355;28;20513;-66
2022/05/28 00:45:16;;;;;;;9.03;3.50;;;15.10;86.10;;;;;;5033730;28;20444;-66
2022/05/28 00:47:47;;;;;;;6.30;2.80;;;15.10;85.90;;;;;;5035626;28;20192;-66
2022/05/28 00:50:14;;;;;;;4.77;3.60;;;15.10;85.50;;;;;;5034983;28;20406;-66
2022/05/28 00:52:40;;;;;;;6.33;3.90;;;15.10;86.50;;;;;;5035272;28;20409;-66
2022/05/28 00:55:07;;;;;;;7.47;3.90;;;15.10;86.90;;;;;;5034792;28;20491;-66
2022/05/28 00:57:32;;;;;;;5.20;3.93;;;15.10;86.00;;;;;;5034300;28;20402;-66
2022/05/28 00:59:58;;;;;;;7.07;4.10;;;15.10;86.90;;;;;;5034867;28;20413;-66
2022/05/28 01:03:01;;;;;;;7.73;4.50;;;15.10;86.60;;;;;;5035329;28;20633;-66
2022/05/28 01:05:27;;;;;;;5.17;4.10;;;15.10;86.70;;;;;;5035282;28;20409;-66
2022/05/28 01:08:03;;;;;;;4.50;3.70;;;15.00;86.70;;;;;;5035266;28;20418;-66
2022/05/28 01:10:33;;;;;;;9.33;4.37;;;15.10;86.40;;;;;;5035474;28;20186;-66
2022/05/28 01:13:10;;;;;;;5.80;3.80;;;15.10;86.50;;;;;;5034579;28;20445;-66
2022/05/28 01:15:41;;;;;;;5.87;3.90;;;15.00;86.40;;;;;;5035236;28;20452;-66
2022/05/28 01:18:18;;;;;;;8.00;3.87;;;15.00;86.30;;;;;;5034509;28;20417;-66
2022/05/28 01:20:52;;;;;;;7.70;4.27;;;15.10;86.50;;;;;;5034799;28;20513;-66
2022/05/28 01:23:54;;;;;;;7.80;4.30;;;15.10;86.50;;;;;;5034430;28;20492;-66
2022/05/28 01:26:49;;;;;;;6.23;3.90;;;15.10;87.10;;;;;;5037645;28;20417;-67
2022/05/28 01:29:17;;;;;;;6.43;3.97;;;15.10;87.10;;;;;;5034499;28;20671;-66
2022/05/28 01:31:44;;;;;;;5.20;4.20;;;15.00;86.30;;;;;;5034788;28;20479;-66
2022/05/28 01:34:11;;;;;;;4.10;3.70;;;14.90;86.60;;;;;;5034100;28;20452;-66
2022/05/28 01:36:38;;;;;;;6.10;3.53;;;14.90;87.30;;;;;;5034531;28;20455;-66
2022/05/28 01:39:05;;;;;;;5.90;3.80;;;14.90;88.10;;;;;;5034056;28;20410;-66
2022/05/28 01:41:34;;;;;;;5.70;4.13;;;14.90;87.90;;;;;;5034386;28;20416;-66
2022/05/28 01:44:01;;;;;;;8.50;3.50;;;14.90;88.00;;;;;;5033521;28;20412;-66
2022/05/28 01:46:29;;;;;;;6.50;4.20;;;14.90;88.60;;;;;;5034511;28;20463;-66
2022/05/28 01:48:56;;;;;;;6.13;3.77;;;14.90;88.00;;;;;;5034086;28;20437;-66
2022/05/28 01:51:29;;;;;;;7.87;3.70;;;14.90;88.70;;;;;;5034546;28;20423;-66
2022/05/28 01:54:11;;;;;;;7.47;3.53;;;14.90;88.40;;;;;;5034199;28;20399;-66
2022/05/28 01:56:42;;;;;;;6.50;4.20;;;14.90;89.10;;;;;;5033994;28;20441;-66
2022/05/28 01:59:08;;;;;;;5.37;4.10;;;14.90;89.00;;;;;;5033447;28;20394;-66
2022/05/28 02:01:34;;;;;;;9.50;4.20;;;14.90;89.90;;;;;;5034276;28;20408;-66
2022/05/28 02:04:04;;;;;;;7.53;4.10;;;14.90;89.00;;;;;;5033608;28;20826;-67
2022/05/28 02:06:31;;;;;;;5.57;4.40;;;14.80;89.50;;;;;;5032914;28;20409;-66
2022/05/28 02:08:57;;;;;;;4.63;3.50;;;14.80;89.00;;;;;;5034058;28;20435;-66
2022/05/28 02:11:26;;;;;;;10.43;4.13;;;14.80;89.80;;;;;;5033987;28;20491;-66
2022/05/28 02:13:55;;;;;;;4.87;3.90;;;14.80;90.10;;;;;;5034320;28;20463;-66
2022/05/28 02:16:34;;;;;;;7.90;4.00;;;14.80;89.90;;;;;;5033271;28;20452;-66
2022/05/28 02:19:04;;;;;;;5.53;3.90;;;14.80;90.00;;;;;;5033541;28;20426;-66
2022/05/28 02:21:37;;;;;;;6.57;3.60;;;14.70;90.30;;;;;;5033829;28;20792;-66
2022/05/28 02:24:15;;;;;;;5.43;3.60;;;14.70;90.50;;;;;;5033166;28;20473;-66
2022/05/28 02:26:48;;;;;;;4.27;3.70;;;14.70;90.60;;;;;;5033775;28;20390;-66
2022/05/28 02:29:15;;;;;;;4.73;3.80;;;14.70;90.60;;;;;;5033198;28;20471;-66
2022/05/28 02:31:45;;;;;;;6.77;4.10;;;14.70;90.20;;;;;;5033674;28;20492;-66
2022/05/28 02:34:11;;;;;;;7.23;4.00;;;14.80;92.30;;;;;;5033285;28;20409;-66
2022/05/28 02:36:37;;;;;;;4.23;3.77;;;14.80;91.30;;;;;;5033165;28;20791;-66
2022/05/28 02:39:03;;;;;;;4.57;4.17;;;14.70;90.80;;;;;;5032908;28;20410;-66
2022/05/28 02:41:29;;;;;;;6.50;4.30;;;14.70;90.90;;;;;;5033715;28;20420;-66
2022/05/28 02:43:54;;;;;;;5.43;4.20;;;14.70;91.20;;;;;;5033078;28;20806;-66
2022/05/28 02:46:21;;;;;;;5.20;3.67;;;14.70;91.40;;;;;;5032760;28;20171;-66
2022/05/28 02:48:47;;;;;;;6.50;4.67;;;14.70;92.80;;;;;;5033806;28;20167;-66
2022/05/28 02:51:21;;;;;;;7.50;4.07;;;14.70;92.20;;;;;;5032695;28;20472;-66
2022/05/28 02:53:48;;;;;;;5.03;4.63;;;14.70;91.50;;;;;;5033524;28;20404;-66
2022/05/28 02:56:14;;;;;;;6.93;4.03;;;14.70;91.60;;;;;;5031823;28;20539;-66
2022/05/28 02:58:41;;;;;;;6.30;4.33;;;14.70;91.50;;;;;;5032842;28;20882;-66
2022/05/28 03:01:28;;;;;;;7.13;4.60;;;14.70;91.90;;;;;;5032616;28;20513;-66
2022/05/28 03:03:55;;;;;;;9.90;4.00;;;14.70;92.00;;;;;;5033331;28;20423;-66
2022/05/28 03:06:21;;;;;;;5.37;4.10;;;14.70;92.50;;;;;;5032486;28;20413;-66
2022/05/28 03:08:47;;;;;;;9.33;4.37;;;14.70;92.50;;;;;;5033290;28;20409;-66
2022/05/28 03:11:12;;;;;;;5.20;3.67;;;14.60;92.30;;;;;;5032365;28;20510;-66
2022/05/28 03:13:39;;;;;;;4.40;3.70;;;14.60;92.80;;;;;;5033292;28;20174;-67
2022/05/28 03:16:05;;;;;;;8.33;4.00;;;14.70;93.00;;;;;;5032338;28;20190;-66
2022/05/28 03:18:31;;;;;;;4.40;3.90;;;14.70;92.60;;;;;;5033040;28;20771;-66
2022/05/28 03:20:56;;;;;;;5.10;3.90;;;14.70;92.90;;;;;;5032486;28;20463;-66
2022/05/28 03:23:22;;;;;;;7.50;4.20;;;14.80;93.70;;;;;;5032264;28;20244;-66
2022/05/28 03:25:48;;;;;;;7.00;3.90;;;14.80;93.30;;;;;;5032862;28;20181;-66
2022/05/28 03:28:14;;;;;;;5.93;3.83;;;14.80;93.10;;;;;;5032446;28;20228;-66
2022/05/28 03:30:39;;;;;;;6.50;4.27;;;14.80;93.70;;;;;;5032550;28;20189;-66
2022/05/28 03:33:05;;;;;;;6.33;3.80;;;14.80;93.90;;;;;;5030895;28;20184;-66
2022/05/28 03:35:31;;;;;;;8.40;4.33;;;14.80;93.90;;;;;;5032635;28;20221;-66
2022/05/28 03:37:57;;;;;;;6.90;4.03;;;14.90;93.30;;;;;;5032417;28;20622;-66
2022/05/28 03:40:23;;;;;;;7.53;4.67;;;14.90;93.10;;;;;;5032101;28;20425;-66
2022/05/28 03:42:48;;;;;;;6.67;4.50;;;14.90;92.90;;;;;;5032551;28;20170;-66
2022/05/28 03:45:14;;;;;;;9.53;4.43;;;15.00;93.10;;;;;;5032035;28;20247;-66
2022/05/28 03:47:40;;;;;;;8.40;4.40;;;14.90;92.80;;;;;;5032608;28;20218;-66
2022/05/28 03:50:06;;;;;;;5.03;3.80;;;15.00;93.90;;;;;;5032019;28;20305;-66
2022/05/28 03:52:32;;;;;;;9.77;4.03;;;14.90;94.10;;;;;;5032548;28;20516;-66
2022/05/28 03:54:58;;;;;;;6.67;4.00;;;14.90;93.60;;;;;;5032434;28;20402;-66
2022/05/28 03:57:26;;;;;;;7.10;5.00;;;14.80;93.70;;;;;;5031878;28;20422;-66
2022/05/28 03:59:53;;;;;;;4.97;4.07;;;14.80;94.40;;;;;;5032166;28;20211;-66
2022/05/28 04:02:18;;;;;;;5.63;5.10;;;14.80;93.70;;;;;;5031879;28;20485;-66
2022/05/28 04:04:44;;;;;;;6.63;4.50;;;14.80;93.50;;;;;;5032172;28;20500;-66
2022/05/28 04:07:11;;;;;;;9.27;4.27;;;14.80;93.70;;;;;;5033495;28;20172;-67
2022/05/28 04:09:37;;;;;;;8.50;4.37;;;14.80;94.10;;;;;;5036183;28;20195;-66
2022/05/28 04:12:04;;;;;;;11.23;5.27;;;14.80;95.80;;;;;;5036540;28;20472;-66
2022/05/28 04:14:29;;;;;;;6.90;4.90;;;14.90;95.20;;;;;;5035904;28;20409;-66
2022/05/28 04:16:55;;;;;;;11.13;4.70;;;14.80;94.90;;;;;;5035094;28;20920;-66
2022/05/28 04:19:21;;;;;;;5.40;4.03;;;14.90;95.20;;;;;;5035189;28;20293;-66
2022/05/28 04:21:47;;;;;;;6.43;4.70;;;14.90;96.30;;;;;;5036239;28;20218;-66
2022/05/28 04:24:13;;;;;;;6.23;4.40;;;14.90;96.50;;;;;;5035125;28;20516;-66
2022/05/28 04:26:39;;;;;;;5.67;4.80;;;15.00;96.10;;;;;;5034814;28;20444;-66
2022/05/28 04:29:05;;;;;;;8.07;5.50;;;15.00;96.30;;;;;;5035879;28;20922;-66
2022/05/28 04:31:31;;;;;;;4.80;4.30;;;15.00;95.40;;;;;;5035620;28;20649;-66
2022/05/28 04:33:56;;;;;;;6.40;4.43;;;15.00;95.30;;;;;;5035888;28;20410;-66
2022/05/28 04:36:23;;;;;;;6.40;4.33;;;15.10;96.40;;;;;;5035237;28;20195;-66
2022/05/28 04:38:49;;;;;;;8.63;5.20;;;15.10;95.80;;;;;;5035717;28;20171;-66
2022/05/28 04:41:15;;;;;;;7.70;4.43;;;15.10;95.80;;;;;;5035396;28;20462;-67
2022/05/28 04:43:41;;;;;;;8.03;5.10;;;15.10;95.40;;;;;;5035682;28;20418;-67
2022/05/28 04:46:06;;;;;;;8.80;4.73;;;15.10;96.40;;;;;;5035060;28;20497;-70
2022/05/28 04:48:33;;;;;;;4.70;4.20;;;15.10;95.90;;;;;;5035753;28;20616;-66
2022/05/28 04:50:59;;;;;;;7.10;4.10;;;15.20;98.40;;;;;;5035692;28;20172;-66
2022/05/28 04:53:25;;;;;;;8.50;4.77;;;15.10;96.50;;;;;;5034585;28;20442;-66
2022/05/28 04:55:50;;;;;;;8.73;5.00;;;15.20;96.90;;;;;;5034359;28;20463;-66
2022/05/28 04:58:16;;;;;;;8.47;5.30;;;15.20;98.00;;;;;;5035127;28;20180;-66
2022/05/28 05:00:45;;;;;;;6.90;4.27;;;15.20;97.20;;;;;;5035072;28;20182;-66
2022/05/28 05:03:11;;;;;;;7.10;4.50;;;15.20;97.30;;;;;;5034740;28;20511;-66
2022/05/28 05:05:37;;;;;;;8.03;4.57;;;15.20;96.70;;;;;;5035247;28;20537;-66
2022/05/28 05:08:03;;;;;;;5.90;4.63;;;15.30;97.20;;;;;;5035286;28;20175;-66
2022/05/28 05:10:29;;;;;;;8.17;4.43;;;15.30;98.90;;;;;;5034530;28;20411;-66
2022/05/28 05:12:55;;;;;;;5.47;3.77;;;15.40;99.20;;;;;;5035064;28;20425;-66
2022/05/28 05:15:21;;;;;;;10.60;5.00;;;15.40;97.80;;;;;;5034398;28;20549;-66
2022/05/28 05:17:47;;;;;;;6.57;4.77;;;15.50;99.90;;;;;;5034450;28;20180;-66
2022/05/28 05:20:14;;;;;;;8.93;4.73;;;15.50;97.30;;;;;;5033676;28;20512;-66
2022/05/28 05:22:40;;;;;;;5.80;3.87;;;15.50;97.90;;;;;;5034996;28;20430;-66
2022/05/28 05:25:07;;;;;;;7.80;4.50;;;15.60;99.00;;;;;;5034852;28;20521;-66
2022/05/28 05:27:32;;;;;;;4.43;3.97;;;15.60;98.70;;;;;;5033971;28;20207;-66
2022/05/28 05:29:59;;;;;;;6.50;3.90;;;15.60;97.80;;;;;;5033691;28;20421;-66
2022/05/28 05:32:45;;;;;;;6.83;4.00;;;15.60;98.50;;;;;;5034135;28;20191;-66
2022/05/28 05:35:11;;;;;;;5.87;3.93;;;15.70;99.90;;;;;;5033760;28;20481;-67
2022/05/28 05:37:37;;;;;;;5.73;4.07;;;15.80;97.40;;;;;;5034587;28;20537;-66
2022/05/28 05:40:04;;;;;;;5.40;3.87;;;15.80;99.00;;;;;;5034597;28;20578;-66
2022/05/28 05:42:30;;;;;;;5.60;4.30;;;15.80;99.60;;;;;;5033861;28;20718;-68
2022/05/28 05:44:56;;;;;;;5.40;4.10;;;15.80;99.90;;;;;;5034475;28;20526;-68
2022/05/28 05:47:21;;;;;;;9.43;4.30;;;15.90;98.00;;;;;;5032452;28;20459;-69
2022/05/28 05:49:47;;;;;;;4.63;4.20;;;16.00;97.20;;;;;;5048031;28;20190;-69
2022/05/28 05:52:13;;;;;;;6.60;4.93;;;16.00;97.10;;;;;;5053186;28;20258;-69
2022/05/28 05:54:38;;;;;;;4.50;4.10;;;16.00;97.30;;;;;;5053458;28;20186;-69
2022/05/28 05:57:05;;;;;;;5.20;4.80;;;16.00;97.10;;;;;;5052783;28;20203;-69
2022/05/28 05:59:31;;;;;;;4.23;3.87;;;16.00;96.60;;;;;;5052487;28;20337;-69
2022/05/28 06:01:57;;;;;;;7.27;4.20;;;16.10;96.50;;;;;;5052688;28;20832;-69
2022/05/28 06:04:22;;;;;;;6.87;2.97;;;16.10;96.30;;;;;;5049064;28;20171;-69
2022/05/28 06:06:48;;;;;;;3.77;3.07;;;16.00;95.70;;;;;;5051198;28;20184;-69
2022/05/28 06:09:14;;;;;;;9.80;3.80;;;16.10;96.30;;;;;;5051528;28;20200;-75
2022/05/28 06:11:40;;;;;;;4.10;3.27;;;16.10;95.00;;;;;;5051771;28;20190;-69
2022/05/28 06:14:06;;;;;;;6.40;4.47;;;16.10;95.20;;;;;;5053469;28;20510;-68
2022/05/28 06:16:32;;;;;;;5.50;3.97;;;16.10;95.30;;;;;;5053101;28;20205;-68
2022/05/28 06:18:57;;;;;;;4.20;3.63;;;16.20;95.40;;;;;;5053873;28;20185;-68
2022/05/28 06:21:25;;;;;;;6.80;4.40;;;16.30;94.60;;;;;;5053003;28;20697;-68
2022/05/28 06:23:51;;;;;;;5.07;3.23;;;16.30;95.40;;;;;;5053765;28;20177;-68
2022/05/28 06:26:17;;;;;;;3.80;3.50;;;16.30;94.60;;;;;;5053031;28;20442;-68
2022/05/28 06:28:43;;;;;;;4.33;3.80;;;16.40;93.80;;;;;;5053518;28;20419;-68
2022/05/28 06:31:11;;;;;;;4.80;4.20;;;16.50;94.10;;;;;;5052194;28;20181;-68
2022/05/28 06:33:38;;;;;;;23.40;14.50;;;16.50;94.60;;;;;;5052443;28;20277;-71
2022/05/28 06:36:06;;;;;;;10.90;7.20;;;17.20;99.90;;;;;;5051769;28;21013;-70
2022/05/28 06:38:32;;;;;;;4.53;3.27;;;18.10;95.20;;;;;;5051480;28;20416;-70
2022/05/28 06:40:59;;;;;;;6.70;3.53;;;18.40;91.30;;;;;;5052175;28;20412;-72
2022/05/28 06:43:26;;;;;;;2.83;2.63;;;18.30;87.30;;;;;;5051385;28;20527;-73
2022/05/28 06:45:53;;;;;;;3.03;2.77;;;18.20;85.30;;;;;;5051976;28;20416;-71
2022/05/28 06:48:19;;;;;;;2.87;2.60;;;18.00;81.70;;;;;;5051150;28;20417;-72
2022/05/28 06:51:03;;;;;;;5.20;2.80;;;17.70;81.50;;;;;;5050588;28;20458;-73
2022/05/28 06:53:40;;;;;;;2.33;2.23;;;17.60;83.30;;;;;;5048968;28;20753;-67
2022/05/28 06:56:08;;;;;;;6.57;2.37;;;17.40;83.20;;;;;;5053093;28;20451;-67
2022/05/28 06:58:34;;;;;;;2.93;2.57;;;17.30;83.20;;;;;;5051230;28;20964;-67
2022/05/28 07:01:01;;;;;;;3.33;2.77;;;17.30;82.40;;;;;;5053000;28;20491;-67
2022/05/28 07:03:28;;;;;;;2.90;2.50;;;17.30;83.80;;;;;;5052030;28;20909;-67
2022/05/28 07:05:55;;;;;;;3.10;2.80;;;17.20;84.60;;;;;;5052715;28;20447;-68
2022/05/28 07:08:21;;;;;;;5.60;3.10;;;17.20;84.00;;;;;;5052220;28;20918;-67
2022/05/28 07:10:50;;;;;;;2.80;2.60;;;17.10;84.10;;;;;;5052524;28;20444;-67
2022/05/28 07:13:18;;;;;;;4.00;2.67;;;17.10;84.60;;;;;;5051844;28;20767;-68
2022/05/28 07:15:44;;;;;;;6.20;3.20;;;17.10;83.60;;;;;;5053047;28;20825;-68
2022/05/28 07:18:10;;;;;;;5.03;3.60;;;17.10;84.90;;;;;;5052570;28;20416;-67
2022/05/28 07:20:36;;;;;;;4.40;3.40;;;17.00;82.90;;;;;;5051814;28;20229;-67
2022/05/28 07:23:28;;;;;;;4.53;3.20;;;16.90;82.00;;;;;;5052574;28;20432;-67
2022/05/28 07:26:18;;;;;;;3.43;3.23;;;16.80;82.40;;;;;;5052510;28;20497;-68
2022/05/28 07:28:45;;;;;;;4.07;2.73;;;16.60;83.50;;;;;;5049358;28;20450;-68
2022/05/28 07:31:20;;;;;;;3.73;2.73;;;16.60;85.00;;;;;;5051729;28;20416;-68
2022/05/28 07:33:47;;;;;;;4.60;3.37;;;16.50;85.10;;;;;;5052631;28;20450;-68
2022/05/28 07:36:19;;;;;;;6.40;4.17;;;16.60;85.40;;;;;;5052439;28;20455;-68
2022/05/28 07:38:45;;;;;;;5.27;3.20;;;16.60;84.80;;;;;;5052688;28;20418;-68
2022/05/28 07:41:14;;;;;;;3.33;3.03;;;16.60;85.30;;;;;;5052926;28;20895;-69
2022/05/28 07:43:41;;;;;;;5.23;2.73;;;16.70;83.80;;;;;;5059381;28;20424;-68
2022/05/28 07:46:16;;;;;;;3.13;2.70;;;16.60;80.70;;;;;;5058739;28;20952;-68
2022/05/28 07:48:42;;;;;;;6.53;2.63;;;16.60;83.70;;;;;;5059342;28;20419;-70
2022/05/28 07:51:08;;;;;;;8.53;2.53;;;16.60;83.10;;;;;;5059018;28;20415;-68
2022/05/28 07:53:34;;;;;;;6.23;2.50;;;16.60;82.90;;;;;;5058281;28;20525;-68
2022/05/28 07:56:01;;;;;;;3.10;2.67;;;16.60;83.10;;;;;;5058649;28;20459;-67
2022/05/28 07:58:27;;;;;;;328.67;190.63;;;16.50;82.70;;;;;;5058338;28;20426;-68
2022/05/28 08:00:53;;;;;;;18.90;13.00;;;16.50;83.10;;;;;;5057328;28;20412;-68
2022/05/28 08:03:19;;;;;;;6.60;4.07;;;16.60;85.30;;;;;;5058651;28;20499;-68
2022/05/28 08:05:47;;;;;;;3.33;2.93;;;16.50;83.40;;;;;;5059056;28;20652;-67
2022/05/28 08:08:14;;;;;;;3.77;3.27;;;16.60;83.40;;;;;;5057460;28;20258;-68
2022/05/28 08:10:40;;;;;;;7.43;2.83;;;16.70;83.90;;;;;;5057984;28;20416;-68
2022/05/28 08:13:08;;;;;;;4.37;2.77;;;16.80;84.10;;;;;;5058877;28;20423;-69
2022/05/28 08:15:36;;;;;;;2.67;2.50;;;17.00;84.50;;;;;;5058139;28;20543;-68
2022/05/28 08:18:02;;;;;;;4.07;3.50;;;17.10;82.50;;;;;;5058447;28;20449;-68
2022/05/28 08:23:13;;;;;;;5.30;2.80;;;17.50;81.10;;;;;;5058875;28;20415;-68
2022/05/28 08:25:40;;;;;;;3.10;2.90;;;17.60;81.40;;;;;;5058219;28;20434;-68
2022/05/28 08:28:10;;;;;;;4.13;3.00;;;17.80;79.70;;;;;;5058765;28;20426;-71
2022/05/28 08:30:38;;;;;;;4.00;2.83;;;18.00;76.60;;;;;;5058508;28;20412;-71
2022/05/28 08:33:07;;;;;;;2.93;2.60;;;18.10;77.70;;;;;;5058307;28;20444;-71
2022/05/28 08:35:33;;;;;;;7.60;2.87;;;18.20;77.00;;;;;;5057978;28;20464;-71
2022/05/28 08:38:11;;;;;;;5.93;2.80;;;18.30;75.80;;;;;;5058650;28;20404;-71
2022/05/28 08:40:43;;;;;;;5.33;2.90;;;18.20;74.90;;;;;;5057971;28;20415;-71
2022/05/28 08:43:09;;;;;;;3.20;2.67;;;18.10;74.60;;;;;;5058659;28;20435;-71
2022/05/28 08:45:35;;;;;;;3.40;3.10;;;18.00;75.10;;;;;;5057865;28;20919;-71
2022/05/28 08:48:03;;;;;;;87.40;57.30;;;17.80;74.40;;;;;;5058505;28;20449;-69
2022/05/28 08:50:30;;;;;;;196.63;131.10;;;17.80;77.70;;;;;;5057800;28;20173;-69
2022/05/28 08:53:09;;;;;;;7.57;5.80;;;17.90;79.70;;;;;;5056776;28;20491;-68
2022/05/28 08:55:41;;;;;;;2.70;2.40;;;18.20;78.00;;;;;;5054812;28;20469;-68
2022/05/28 08:58:15;;;;;;;10.33;3.10;;;18.40;77.30;;;;;;5055387;28;20423;-68
2022/05/28 09:00:58;;;;;;;5.03;3.70;;;18.50;72.70;;;;;;5054975;28;20396;-72
2022/05/28 09:03:42;;;;;;;5.80;3.43;;;18.70;74.40;;;;;;5054301;28;20869;-72
2022/05/28 09:06:14;;;;;;;2.60;2.47;;;18.90;75.00;;;;;;5055077;28;20425;-72
2022/05/28 09:08:43;;;;;;;3.50;2.47;;;19.10;71.60;;;;;;5054644;28;20396;-72
2022/05/28 09:11:28;;;;;;;3.00;2.80;;;19.10;69.80;;;;;;5055277;28;20764;-72
2022/05/28 09:13:54;;;;;;;3.50;2.93;;;19.30;70.60;;;;;;5055229;28;20423;-72
2022/05/28 09:16:30;;;;;;;3.47;2.77;;;19.40;67.30;;;;;;5054554;28;20985;-72
2022/05/28 09:19:02;;;;;;;3.03;2.73;;;19.20;66.00;;;;;;5055066;28;20438;-72
2022/05/28 09:21:27;;;;;;;6.60;3.27;;;19.00;66.90;;;;;;5053923;28;20892;-72
2022/05/28 09:24:12;;;;;;;5.00;2.80;;;18.90;67.50;;;;;;5054902;28;20452;-72
2022/05/28 09:27:17;;;;;;;3.47;2.47;;;18.90;70.70;;;;;;5054204;28;20177;-72
2022/05/28 09:30:08;;;;;;;2.93;2.30;;;18.80;70.60;;;;;;5054176;28;20416;-72
2022/05/28 09:32:55;;;;;;;3.23;2.90;;;18.70;69.40;;;;;;5054107;28;20396;-72
2022/05/28 09:35:43;;;;;;;4.30;2.77;;;18.60;70.60;;;;;;5054576;28;20455;-72
2022/05/28 09:38:47;;;;;;;3.93;2.30;;;18.60;70.70;;;;;;5055065;28;20399;-72
2022/05/28 09:41:22;;;;;;;3.03;2.63;;;18.50;72.10;;;;;;5054598;28;20403;-72
2022/05/28 09:44:22;;;;;;;3.47;2.77;;;18.60;75.50;;;;;;5054311;28;20430;-72
2022/05/28 09:46:48;;;;;;;2.43;2.07;;;18.80;73.20;;;;;;5054621;28;20467;-72
2022/05/28 09:49:22;;;;;;;4.00;2.33;;;19.10;70.60;;;;;;5054614;28;20447;-72
2022/05/28 09:52:09;;;;;;;2.43;2.23;;;19.40;73.20;;;;;;5054594;28;20430;-72
2022/05/28 09:54:36;;;;;;;2.63;2.53;;;19.70;70.70;;;;;;5053639;28;20404;-72
2022/05/28 09:57:09;;;;;;;3.53;2.63;;;19.90;67.60;;;;;;5052793;28;20826;-72
2022/05/28 09:59:55;;;;;;;4.67;3.37;;;19.90;65.90;;;;;;5053627;28;20509;-72
2022/05/28 10:02:40;;;;;;;2.60;2.40;;;19.80;62.70;;;;;;5054056;28;20419;-72
2022/05/28 10:05:16;;;;;;;4.20;2.70;;;19.80;66.40;;;;;;5069065;28;20454;-72
2022/05/28 10:07:46;;;;;;;5.50;2.83;;;19.70;65.10;;;;;;5053473;28;20569;-72
2022/05/28 10:10:32;;;;;;;6.20;3.17;;;19.50;65.60;;;;;;5053857;28;20420;-72
2022/05/28 10:13:15;;;;;;;3.07;2.80;;;19.30;65.00;;;;;;5053945;28;20816;-72
2022/05/28 10:16:00;;;;;;;4.20;2.70;;;19.10;65.00;;;;;;5053186;28;20794;-72
2022/05/28 10:18:35;;;;;;;2.90;2.70;;;19.00;67.10;;;;;;5053598;28;20409;-72
2022/05/28 10:21:32;;;;;;;2.90;2.70;;;19.00;69.90;;;;;;5053814;28;20467;-72
2022/05/28 10:24:02;;;;;;;2.97;2.70;;;19.30;72.70;;;;;;5053826;28;20407;-72
2022/05/28 10:26:36;;;;;;;4.80;2.87;;;19.50;69.30;;;;;;5053109;28;20944;-72
2022/05/28 10:29:09;;;;;;;2.80;2.50;;;19.60;67.40;;;;;;5053602;28;20414;-72
2022/05/28 10:31:40;;;;;;;3.83;3.20;;;19.70;66.40;;;;;;5053262;28;20400;-72
2022/05/28 10:34:07;;;;;;;2.90;2.60;;;19.80;66.10;;;;;;5053590;28;20384;-72
2022/05/28 10:36:35;;;;;;;3.63;2.70;;;19.90;66.50;;;;;;5052739;28;20816;-72
2022/05/28 10:39:10;;;;;;;2.97;2.53;;;19.90;66.10;;;;;;5053498;28;20495;-72
2022/05/28 10:41:37;;;;;;;2.80;2.40;;;19.90;62.80;;;;;;5052841;28;20400;-72
2022/05/28 10:44:04;;;;;;;5.70;2.90;;;19.80;62.90;;;;;;5053303;28;20408;-72
2022/05/28 10:46:49;;;;;;;3.10;2.80;;;19.60;64.00;;;;;;5052699;28;20896;-72
2022/05/28 10:49:30;;;;;;;8.37;3.60;;;19.40;64.00;;;;;;5052887;28;20420;-72
2022/05/28 10:52:23;;;;;;;3.17;2.87;;;19.10;64.50;;;;;;5053171;28;20416;-72
2022/05/28 10:55:05;;;;;;;3.77;3.47;;;18.90;66.30;;;;;;5052529;28;20408;-72
2022/05/28 10:57:51;;;;;;;3.33;3.07;;;18.80;68.60;;;;;;5052406;28;20428;-72
2022/05/28 11:00:43;;;;;;;4.13;2.57;;;18.60;69.40;;;;;;5041606;28;20431;-72
2022/05/28 11:03:46;;;;;;;4.77;2.77;;;18.70;69.50;;;;;;5053357;28;20416;-72
2022/05/28 11:06:53;;;;;;;5.43;2.80;;;19.00;69.60;;;;;;5052970;28;20982;-72
2022/05/28 11:09:33;;;;;;;3.10;2.53;;;19.30;70.90;;;;;;5046674;28;20422;-72
2022/05/28 11:12:02;;;;;;;3.27;2.97;;;19.60;69.60;;;;;;5052871;28;20436;-72
2022/05/28 11:14:36;;;;;;;4.10;2.87;;;19.90;67.70;;;;;;5052140;28;20439;-73
2022/05/28 11:17:10;;;;;;;3.50;3.20;;;20.00;63.60;;;;;;5052137;28;20455;-72
2022/05/28 11:19:51;;;;;;;2.80;2.63;;;20.00;62.60;;;;;;5052294;28;21036;-72
2022/05/28 11:22:33;;;;;;;4.53;3.00;;;19.90;63.00;;;;;;5052819;28;20892;-69
2022/05/28 11:25:24;;;;;;;5.00;2.83;;;19.70;62.30;;;;;;5052774;28;20424;-68
2022/05/28 11:28:07;;;;;;;2.90;2.70;;;19.50;62.70;;;;;;5051402;28;20898;-68
2022/05/28 11:30:41;;;;;;;4.20;2.40;;;19.40;63.70;;;;;;5051988;28;20401;-68
2022/05/28 11:33:31;;;;;;;114.00;76.90;;;19.10;64.60;;;;;;5052397;28;20873;-68
2022/05/28 11:36:18;;;;;;;53.70;41.63;;;19.00;66.00;;;;;;5052331;28;20947;-68
2022/05/28 11:39:06;;;;;;;6.07;4.73;;;18.90;67.90;;;;;;5051937;28;20392;-68
2022/05/28 11:41:48;;;;;;;4.00;3.50;;;19.00;71.00;;;;;;5051384;28;20488;-68
2022/05/28 11:44:45;;;;;;;3.33;3.13;;;19.30;74.40;;;;;;5052466;28;20722;-68
2022/05/28 11:47:31;;;;;;;3.57;3.30;;;19.70;69.30;;;;;;5051969;28;20404;-69
2022/05/28 11:53:19;;;;;;;5.03;4.63;;;19.90;64.90;;;;;;5052262;28;20471;-72
2022/05/28 11:55:49;;;;;;;5.57;4.23;;;20.00;67.00;;;;;;5051659;28;20551;-72
2022/05/28 11:58:44;;;;;;;3.33;3.13;;;20.10;66.20;;;;;;5052296;28;20807;-72
2022/05/28 12:01:20;;;;;;;4.80;4.40;;;20.20;65.10;;;;;;5052335;28;20409;-72
2022/05/28 12:03:47;;;;;;;3.30;3.00;;;20.30;64.90;;;;;;5052068;28;20462;-72
2022/05/28 12:06:29;;;;;;;3.90;3.50;;;20.30;64.90;;;;;;5052275;28;20473;-72
2022/05/28 12:09:05;;;;;;;4.20;3.80;;;20.40;64.10;;;;;;5051990;28;20408;-68
2022/05/28 12:11:53;;;;;;;3.33;3.00;;;20.30;64.20;;;;;;5051875;28;20436;-83
2022/05/28 12:14:31;;;;;;;3.20;2.90;;;20.20;64.70;;;;;;5052012;28;20485;-72
2022/05/28 12:17:12;;;;;;;3.90;3.07;;;19.90;66.80;;;;;;5052080;28;20448;-72
2022/05/28 12:20:06;;;;;;;3.33;2.80;;;19.90;66.50;;;;;;5033741;28;20432;-72
2022/05/28 12:22:55;;;;;;;3.37;2.87;;;19.90;69.00;;;;;;5051100;28;20492;-74
2022/05/28 12:25:41;;;;;;;4.30;3.90;;;20.00;68.70;;;;;;5052091;28;20495;-68
2022/05/28 12:28:22;;;;;;;903.93;562.37;;;20.10;67.50;;;;;;5053645;28;20483;-71
2022/05/28 12:30:51;;;;;;;29.10;22.20;;;20.10;65.40;;;;;;5055556;28;20408;-71
2022/05/28 12:33:24;;;;;;;4.97;3.27;;;20.00;64.80;;;;;;5054287;28;20736;-70
2022/05/28 12:35:53;;;;;;;5.73;3.70;;;19.90;65.40;;;;;;5055173;28;20535;-68
2022/05/28 12:38:37;;;;;;;4.37;2.70;;;19.70;63.40;;;;;;5055078;28;20416;-68
2022/05/28 12:41:03;;;;;;;4.47;3.53;;;19.60;63.20;;;;;;5055755;28;20415;-68
2022/05/28 12:43:33;;;;;;;3.00;2.80;;;19.60;64.00;;;;;;5058441;28;20440;-68
2022/05/28 12:46:20;;;;;;;3.33;2.97;;;19.50;63.60;;;;;;5055704;28;20506;-68
2022/05/28 12:48:50;;;;;;;3.33;3.03;;;19.60;64.40;;;;;;5062083;28;20446;-68
2022/05/28 12:51:25;;;;;;;5.53;3.60;;;19.60;67.10;;;;;;5060532;28;20455;-68
2022/05/28 12:54:00;;;;;;;3.80;3.10;;;19.80;70.00;;;;;;5051984;28;20493;-68
2022/05/28 12:56:34;;;;;;;4.10;2.83;;;20.00;69.20;;;;;;5053742;28;20455;-69
2022/05/28 12:59:23;;;;;;;2.70;2.50;;;20.20;70.00;;;;;;5054172;28;20392;-68
2022/05/28 13:02:01;;;;;;;3.70;3.20;;;20.50;67.30;;;;;;5054371;28;20396;-69
2022/05/28 13:04:32;;;;;;;5.63;3.73;;;20.70;67.60;;;;;;5055191;28;20903;-68
2022/05/28 13:07:00;;;;;;;7.20;2.80;;;20.80;62.70;;;;;;5054326;28;20436;-68
2022/05/28 13:09:29;;;;;;;3.00;2.70;;;20.70;61.10;;;;;;5055108;28;20419;-68
2022/05/28 13:11:58;;;;;;;5.90;3.13;;;20.60;59.20;;;;;;5054708;28;20412;-68
2022/05/28 13:14:36;;;;;;;3.90;3.43;;;20.40;59.50;;;;;;5054979;28;20539;-68